Time;durP1;ratioP1;P1;durP2;ratioP2;P2;SDS_P1;SDS_P2;PMS_P1;PMS_P2;Temp;Humidity;BMP_temperature;BMP_pressure;BME280_temperature;BME280_humidity;BME280_pressure;Samples;Min_cycle;Max_cycle;Signal;HPM_P1;HPM_P2
2022/02/14 00:00:35;;;;;;;9.97;3.47;;;7.50;99.90;;;;;;5062684;28;20206;-46
2022/02/14 00:03:02;;;;;;;4.67;3.47;;;7.40;99.90;;;;;;5045519;28;20206;-49
2022/02/14 00:05:31;;;;;;;7.30;4.00;;;7.40;99.90;;;;;;5052554;28;20206;-48
2022/02/14 00:07:58;;;;;;;5.37;4.07;;;7.50;99.90;;;;;;5063089;28;20218;-52
2022/02/14 00:10:25;;;;;;;6.27;3.67;;;7.50;99.90;;;;;;5055215;28;20218;-48
2022/02/14 00:12:52;;;;;;;4.77;3.37;;;7.40;99.90;;;;;;5061282;28;20199;-45
2022/02/14 00:15:21;;;;;;;5.97;3.80;;;7.30;99.90;;;;;;5062964;28;20205;-46
2022/02/14 00:17:49;;;;;;;6.17;3.37;;;7.30;99.90;;;;;;5049555;28;20239;-47
2022/02/14 00:20:16;;;;;;;5.63;3.50;;;7.20;99.90;;;;;;5056584;28;20695;-48
2022/02/14 00:22:43;;;;;;;5.63;3.53;;;7.20;99.90;;;;;;5059284;28;20297;-49
2022/02/14 00:25:11;;;;;;;7.60;3.73;;;7.20;99.90;;;;;;5062668;28;20199;-49
2022/02/14 00:27:38;;;;;;;7.57;4.67;;;7.20;99.90;;;;;;5065875;28;20205;-49
2022/02/14 00:30:06;;;;;;;6.57;3.40;;;7.10;99.90;;;;;;5069743;28;20206;-47
2022/02/14 00:32:35;;;;;;;7.03;3.80;;;7.10;99.90;;;;;;5059346;28;20226;-46
2022/02/14 00:35:02;;;;;;;4.83;3.50;;;7.10;99.90;;;;;;5048672;28;20757;-46
2022/02/14 00:37:29;;;;;;;4.33;3.43;;;7.00;99.90;;;;;;5059870;28;20296;-48
2022/02/14 00:39:57;;;;;;;4.87;3.53;;;7.00;99.90;;;;;;5062542;28;20699;-49
2022/02/14 00:42:24;;;;;;;3.50;3.17;;;7.00;99.90;;;;;;5069131;28;20271;-47
2022/02/14 00:44:51;;;;;;;4.87;3.30;;;7.00;99.90;;;;;;5080689;28;20955;-46
2022/02/14 00:47:18;;;;;;;6.00;3.20;;;7.00;99.90;;;;;;5081766;28;20527;-46
2022/02/14 00:49:46;;;;;;;5.30;3.03;;;6.90;99.90;;;;;;5052885;28;20230;-45
2022/02/14 00:52:15;;;;;;;4.60;3.23;;;6.90;99.90;;;;;;5062851;28;20761;-49
2022/02/14 00:54:43;;;;;;;5.07;3.47;;;6.90;99.90;;;;;;5059705;28;20910;-46
2022/02/14 00:57:10;;;;;;;6.07;3.60;;;6.90;99.90;;;;;;5056835;28;20736;-49
2022/02/14 00:59:36;;;;;;;3.47;3.17;;;6.90;99.90;;;;;;5058738;28;20210;-44
2022/02/14 01:02:04;;;;;;;5.60;3.47;;;6.90;99.90;;;;;;5063178;28;20680;-45
2022/02/14 01:04:31;;;;;;;7.23;4.03;;;6.90;99.90;;;;;;5047635;28;20198;-46
2022/02/14 01:06:59;;;;;;;5.07;3.77;;;6.90;99.90;;;;;;5060922;28;20198;-48
2022/02/14 01:09:26;;;;;;;7.53;3.23;;;6.90;99.90;;;;;;5060834;28;20579;-47
2022/02/14 01:11:53;;;;;;;4.67;3.40;;;6.90;99.90;;;;;;5061446;28;20222;-46
2022/02/14 01:14:20;;;;;;;6.47;3.30;;;6.90;99.90;;;;;;5055879;28;20210;-48
2022/02/14 01:16:47;;;;;;;6.40;3.47;;;6.90;99.90;;;;;;5060201;28;20198;-46
2022/02/14 01:19:13;;;;;;;6.13;3.43;;;6.90;99.90;;;;;;5062667;28;20219;-46
2022/02/14 01:21:41;;;;;;;4.63;3.13;;;6.90;99.90;;;;;;5044989;28;20210;-48
2022/02/14 01:24:10;;;;;;;4.97;3.07;;;6.90;99.90;;;;;;5062862;28;20201;-45
2022/02/14 01:26:37;;;;;;;6.17;3.30;;;7.00;99.90;;;;;;5058582;28;20198;-47
2022/02/14 01:29:04;;;;;;;7.47;3.27;;;7.00;99.90;;;;;;5056598;28;20326;-44
2022/02/14 01:31:31;;;;;;;5.40;3.00;;;7.00;99.90;;;;;;5059821;28;20202;-47
2022/02/14 01:33:57;;;;;;;5.20;3.10;;;7.00;99.90;;;;;;5062298;28;20199;-50
2022/02/14 01:36:24;;;;;;;5.30;3.33;;;7.00;99.90;;;;;;5045404;28;20214;-47
2022/02/14 01:38:51;;;;;;;5.83;3.17;;;7.00;99.90;;;;;;5060546;28;20206;-49
2022/02/14 01:41:19;;;;;;;3.33;2.63;;;7.00;99.90;;;;;;5063186;28;20569;-48
2022/02/14 01:43:46;;;;;;;5.03;2.90;;;7.00;99.90;;;;;;5058253;28;20209;-48
2022/02/14 01:46:13;;;;;;;4.67;2.73;;;7.00;99.90;;;;;;5085592;28;20281;-46
2022/02/14 01:48:40;;;;;;;3.93;3.20;;;7.00;99.90;;;;;;5081823;28;20222;-45
2022/02/14 01:51:08;;;;;;;4.63;3.27;;;7.00;99.90;;;;;;5071601;28;20237;-46
2022/02/14 01:53:35;;;;;;;5.57;3.17;;;7.00;99.90;;;;;;5047561;28;20210;-46
2022/02/14 01:56:02;;;;;;;4.60;2.90;;;6.90;99.90;;;;;;5066032;28;20205;-45
2022/02/14 01:58:31;;;;;;;5.83;3.40;;;6.90;99.90;;;;;;5062993;28;20219;-49
2022/02/14 02:00:58;;;;;;;7.07;3.00;;;6.90;99.90;;;;;;5067032;28;20202;-45
2022/02/14 02:03:25;;;;;;;5.00;3.20;;;6.90;99.90;;;;;;5083761;28;20202;-45
2022/02/14 02:05:52;;;;;;;7.17;3.00;;;6.90;99.90;;;;;;5083761;28;20951;-44
2022/02/14 02:08:18;;;;;;;6.57;3.40;;;6.90;99.90;;;;;;5047976;28;20310;-47
2022/02/14 02:10:45;;;;;;;3.43;2.83;;;6.90;99.90;;;;;;5064629;28;20191;-46
2022/02/14 02:13:16;;;;;;;4.40;3.10;;;6.90;99.90;;;;;;5061576;28;20660;-49
2022/02/14 02:15:45;;;;;;;5.37;3.27;;;7.00;99.90;;;;;;5058647;28;20630;-48
2022/02/14 02:18:12;;;;;;;3.80;2.60;;;7.00;99.90;;;;;;5062089;28;20219;-48
2022/02/14 02:20:38;;;;;;;7.00;3.07;;;7.00;99.90;;;;;;5066132;28;20276;-45
2022/02/14 02:23:05;;;;;;;6.17;3.00;;;7.00;99.90;;;;;;5061707;28;20195;-51
2022/02/14 02:25:34;;;;;;;4.17;2.80;;;7.00;99.90;;;;;;5058309;28;20221;-45
2022/02/14 02:28:00;;;;;;;3.23;2.20;;;7.10;99.90;;;;;;5064057;28;20226;-47
2022/02/14 02:30:29;;;;;;;4.67;2.70;;;7.10;99.90;;;;;;5056837;28;20861;-48
2022/02/14 02:32:55;;;;;;;3.40;2.63;;;7.10;99.90;;;;;;5065783;28;20563;-45
2022/02/14 02:35:23;;;;;;;5.27;2.50;;;7.20;99.90;;;;;;5062279;28;20187;-46
2022/02/14 02:37:49;;;;;;;4.70;2.87;;;7.20;99.90;;;;;;5065500;28;20217;-47
2022/02/14 02:40:17;;;;;;;9.80;3.20;;;7.20;99.90;;;;;;5046925;28;20364;-49
2022/02/14 02:42:47;;;;;;;4.10;2.87;;;7.20;99.90;;;;;;5065029;28;20198;-46
2022/02/14 02:45:13;;;;;;;3.40;2.63;;;7.20;99.90;;;;;;5061753;28;20285;-49
2022/02/14 02:47:40;;;;;;;5.17;3.40;;;7.10;99.90;;;;;;5059121;28;20206;-46
2022/02/14 02:50:08;;;;;;;3.03;2.50;;;7.10;99.90;;;;;;5062996;28;20214;-51
2022/02/14 02:52:35;;;;;;;3.60;2.47;;;7.10;99.90;;;;;;5063150;28;21061;-45
2022/02/14 02:55:23;;;;;;;4.10;2.53;;;7.00;99.90;;;;;;5047100;28;20222;-44
2022/02/14 02:57:51;;;;;;;4.13;3.10;;;7.00;99.90;;;;;;5061514;28;20199;-44
2022/02/14 03:00:18;;;;;;;7.70;3.20;;;7.00;99.90;;;;;;5061441;28;20784;-47
2022/02/14 03:02:45;;;;;;;3.97;2.63;;;7.00;99.90;;;;;;5059315;28;20725;-46
2022/02/14 03:05:12;;;;;;;3.70;2.73;;;6.90;99.90;;;;;;5061916;28;20199;-45
2022/02/14 03:07:39;;;;;;;4.47;2.67;;;6.90;99.90;;;;;;5074845;28;20205;-44
2022/02/14 03:10:07;;;;;;;3.73;2.63;;;6.90;99.90;;;;;;5072720;28;20569;-48
2022/02/14 03:12:34;;;;;;;4.33;2.77;;;6.90;99.90;;;;;;5058740;28;20990;-48
2022/02/14 03:15:03;;;;;;;4.13;2.67;;;6.90;99.90;;;;;;5063779;28;20202;-50
2022/02/14 03:17:30;;;;;;;5.23;2.90;;;6.80;99.90;;;;;;5056478;28;22587;-44
2022/02/14 03:19:56;;;;;;;2.63;2.30;;;6.90;99.90;;;;;;5064589;28;20210;-47
2022/02/14 03:22:23;;;;;;;5.83;2.83;;;6.90;99.90;;;;;;5061224;28;20179;-47
2022/02/14 03:24:50;;;;;;;3.53;2.40;;;6.90;99.90;;;;;;5064628;28;20214;-46
2022/02/14 03:27:17;;;;;;;4.67;2.50;;;6.90;99.90;;;;;;5043996;28;20958;-44
2022/02/14 03:29:44;;;;;;;4.20;2.90;;;7.00;99.90;;;;;;5064164;28;20364;-44
2022/02/14 03:32:13;;;;;;;4.80;2.77;;;7.00;99.90;;;;;;5056781;28;20217;-46
2022/02/14 03:34:40;;;;;;;2.90;2.60;;;7.00;99.90;;;;;;5062508;28;20262;-45
2022/02/14 03:37:07;;;;;;;6.27;2.70;;;7.00;99.90;;;;;;5062288;28;20202;-50
2022/02/14 03:39:34;;;;;;;5.13;2.80;;;7.00;99.90;;;;;;5062961;28;20293;-47
2022/02/14 03:42:00;;;;;;;3.47;2.47;;;7.00;99.90;;;;;;5049091;28;20214;-47
2022/02/14 03:44:28;;;;;;;5.00;2.90;;;6.90;99.90;;;;;;5069451;28;20222;-49
2022/02/14 03:46:55;;;;;;;2.80;2.53;;;7.00;99.90;;;;;;5064077;28;20212;-44
2022/02/14 03:49:23;;;;;;;4.63;2.80;;;6.90;99.90;;;;;;5054008;28;20233;-44
2022/02/14 03:51:49;;;;;;;5.30;2.57;;;6.90;99.90;;;;;;5066644;28;20202;-46
2022/02/14 03:54:16;;;;;;;2.50;2.30;;;6.90;99.90;;;;;;5064663;28;20209;-44
2022/02/14 03:56:43;;;;;;;2.93;2.53;;;7.00;99.90;;;;;;5063774;28;20574;-44
2022/02/14 03:59:09;;;;;;;6.93;2.80;;;7.00;99.90;;;;;;5046736;28;20218;-48
2022/02/14 04:01:36;;;;;;;6.27;2.63;;;7.00;99.90;;;;;;5063217;28;20207;-44
2022/02/14 04:04:03;;;;;;;5.80;3.00;;;7.00;99.90;;;;;;5060268;28;20202;-48
2022/02/14 04:06:31;;;;;;;4.33;2.47;;;7.00;99.90;;;;;;5058008;28;20212;-47
2022/02/14 04:08:58;;;;;;;6.53;2.93;;;7.00;99.90;;;;;;5063253;28;20226;-45
2022/02/14 04:11:25;;;;;;;3.73;2.43;;;7.00;99.90;;;;;;5060443;28;20198;-46
2022/02/14 04:13:52;;;;;;;5.37;2.33;;;7.00;99.90;;;;;;5040202;28;20603;-46
2022/02/14 04:16:19;;;;;;;5.77;2.23;;;7.00;99.90;;;;;;5060106;28;20198;-45
2022/02/14 04:18:46;;;;;;;5.07;2.70;;;7.00;99.90;;;;;;5062636;28;20215;-45
2022/02/14 04:21:13;;;;;;;4.47;2.23;;;7.00;99.90;;;;;;5056026;28;20201;-44
2022/02/14 04:23:41;;;;;;;4.40;2.60;;;7.00;99.90;;;;;;5063234;28;20190;-46
2022/02/14 04:26:08;;;;;;;5.37;2.57;;;7.00;99.90;;;;;;5061250;28;20205;-45
2022/02/14 04:28:35;;;;;;;5.10;2.57;;;7.00;99.90;;;;;;5061872;28;20226;-46
2022/02/14 04:31:02;;;;;;;4.60;2.30;;;7.00;99.90;;;;;;5060015;28;20206;-47
2022/02/14 04:33:29;;;;;;;6.20;2.70;;;7.00;99.90;;;;;;5063244;28;20225;-47
2022/02/14 04:35:57;;;;;;;4.87;2.43;;;7.00;99.90;;;;;;5054634;28;20203;-49
2022/02/14 04:38:24;;;;;;;5.67;2.33;;;7.00;99.90;;;;;;5062156;28;20284;-45
2022/02/14 04:40:52;;;;;;;4.10;2.43;;;7.00;99.90;;;;;;5064662;28;20198;-46
2022/02/14 04:43:19;;;;;;;6.97;2.70;;;7.00;99.90;;;;;;5080314;28;20193;-45
2022/02/14 04:45:46;;;;;;;4.90;2.47;;;7.00;99.90;;;;;;5051703;28;20214;-47
2022/02/14 04:48:12;;;;;;;3.67;2.37;;;7.00;99.90;;;;;;5059431;28;20920;-45
2022/02/14 04:50:39;;;;;;;3.97;2.13;;;7.00;99.90;;;;;;5056933;28;20199;-45
2022/02/14 04:53:07;;;;;;;3.47;2.77;;;7.10;99.90;;;;;;5058954;28;20853;-44
2022/02/14 04:55:34;;;;;;;4.27;2.73;;;7.10;99.90;;;;;;5063350;28;20563;-50
2022/02/14 04:58:02;;;;;;;3.97;2.53;;;7.10;99.90;;;;;;5058848;28;20215;-48
2022/02/14 05:00:30;;;;;;;4.90;2.27;;;7.10;99.90;;;;;;5045412;28;20856;-45
2022/02/14 05:02:56;;;;;;;3.30;2.47;;;7.10;99.90;;;;;;5052305;28;20186;-46
2022/02/14 05:05:23;;;;;;;7.20;2.37;;;7.10;99.90;;;;;;5059819;28;20186;-48
2022/02/14 05:07:50;;;;;;;6.83;2.40;;;7.10;99.90;;;;;;5054950;28;20199;-47
2022/02/14 05:10:18;;;;;;;6.87;3.00;;;7.10;99.90;;;;;;5060663;28;20272;-46
2022/02/14 05:12:45;;;;;;;4.13;2.47;;;7.10;99.90;;;;;;5055165;28;20253;-48
2022/02/14 05:15:14;;;;;;;6.27;2.93;;;7.10;99.90;;;;;;5045219;28;20575;-49
2022/02/14 05:17:41;;;;;;;4.27;2.50;;;7.10;99.90;;;;;;5066026;28;20230;-45
2022/02/14 05:20:09;;;;;;;4.13;2.60;;;7.10;99.90;;;;;;5062813;28;20202;-48
2022/02/14 05:22:35;;;;;;;4.37;2.80;;;7.10;99.90;;;;;;5060949;28;20210;-44
2022/02/14 05:25:03;;;;;;;4.70;2.63;;;7.10;99.90;;;;;;5063651;28;20206;-48
2022/02/14 05:27:30;;;;;;;4.13;2.40;;;7.10;99.90;;;;;;5066470;28;20203;-50
2022/02/14 05:29:57;;;;;;;5.13;2.63;;;7.10;99.90;;;;;;5056068;28;20981;-51
2022/02/14 05:32:25;;;;;;;5.93;2.70;;;7.10;99.90;;;;;;5052157;28;20226;-46
2022/02/14 05:34:52;;;;;;;4.83;2.50;;;7.10;99.90;;;;;;5055155;28;20211;-48
2022/02/14 05:37:18;;;;;;;4.57;2.73;;;7.10;99.90;;;;;;5065627;28;20191;-46
2022/02/14 05:39:46;;;;;;;5.83;2.77;;;7.10;99.90;;;;;;5056351;28;21560;-50
2022/02/14 05:42:14;;;;;;;5.43;2.93;;;7.10;99.90;;;;;;5065113;28;20198;-51
2022/02/14 05:44:41;;;;;;;4.93;2.80;;;7.10;99.90;;;;;;5063050;28;20201;-52
2022/02/14 05:47:08;;;;;;;2.87;2.20;;;7.20;99.90;;;;;;5051904;28;20203;-49
2022/02/14 05:49:36;;;;;;;4.07;2.20;;;7.20;99.90;;;;;;5064066;28;20227;-46
2022/02/14 05:52:04;;;;;;;3.13;2.50;;;7.20;99.90;;;;;;5065549;28;20210;-46
2022/02/14 05:54:31;;;;;;;5.13;2.70;;;7.20;99.90;;;;;;5057596;28;20241;-49
2022/02/14 05:56:58;;;;;;;4.00;2.60;;;7.20;99.90;;;;;;5063572;28;20209;-51
2022/02/14 05:59:25;;;;;;;4.47;2.60;;;7.30;99.90;;;;;;5072750;28;20613;-48
2022/02/14 06:01:52;;;;;;;5.23;2.60;;;7.30;99.90;;;;;;5061706;28;20967;-48
2022/02/14 06:04:18;;;;;;;3.07;2.23;;;7.30;99.90;;;;;;5045883;28;20224;-49
2022/02/14 06:06:47;;;;;;;5.37;2.67;;;7.30;99.90;;;;;;5051668;28;20202;-48
2022/02/14 06:09:13;;;;;;;4.60;2.57;;;7.30;99.90;;;;;;5058234;28;20234;-47
2022/02/14 06:11:40;;;;;;;2.80;2.60;;;7.30;99.90;;;;;;5058752;28;20675;-48
2022/02/14 06:14:07;;;;;;;5.50;2.40;;;7.30;99.90;;;;;;5059115;28;20215;-46
2022/02/14 06:16:34;;;;;;;4.83;2.50;;;7.30;99.90;;;;;;5065743;28;20204;-45
2022/02/14 06:19:00;;;;;;;3.00;2.47;;;7.30;99.90;;;;;;5048054;28;20246;-45
2022/02/14 06:21:27;;;;;;;5.77;2.70;;;7.30;99.90;;;;;;5064779;28;20186;-45
2022/02/14 06:23:55;;;;;;;2.43;2.13;;;7.30;99.90;;;;;;5053089;28;20202;-47
2022/02/14 06:26:22;;;;;;;3.00;2.30;;;7.30;99.90;;;;;;5063263;28;20582;-45
2022/02/14 06:28:48;;;;;;;4.27;2.50;;;7.30;99.90;;;;;;5056091;28;20231;-48
2022/02/14 06:31:16;;;;;;;5.17;2.37;;;7.40;99.90;;;;;;5056929;28;20272;-48
2022/02/14 06:33:42;;;;;;;3.03;2.27;;;7.40;99.90;;;;;;5048926;28;20218;-48
2022/02/14 06:36:09;;;;;;;3.43;2.30;;;7.40;99.90;;;;;;5059339;28;20480;-45
2022/02/14 06:38:37;;;;;;;2.93;2.33;;;7.40;99.90;;;;;;5063779;28;20215;-48
2022/02/14 06:41:05;;;;;;;5.37;3.00;;;7.40;99.90;;;;;;5057451;28;20774;-46
2022/02/14 06:43:32;;;;;;;6.93;2.87;;;7.40;99.90;;;;;;5058738;28;20191;-45
2022/02/14 06:45:59;;;;;;;6.33;2.57;;;7.40;99.90;;;;;;5060219;28;20197;-45
2022/02/14 06:48:26;;;;;;;7.50;2.70;;;7.40;99.90;;;;;;5064952;28;20314;-45
2022/02/14 06:50:52;;;;;;;4.13;2.60;;;7.40;99.90;;;;;;5046281;28;20234;-48
2022/02/14 06:53:19;;;;;;;4.27;2.30;;;7.50;99.90;;;;;;5063418;28;20290;-46
2022/02/14 06:55:46;;;;;;;6.63;2.50;;;7.50;99.90;;;;;;5058429;28;20195;-49
2022/02/14 06:58:14;;;;;;;3.60;2.57;;;7.50;99.90;;;;;;5064344;28;20222;-44
2022/02/14 07:00:41;;;;;;;3.00;2.47;;;7.50;99.90;;;;;;5057118;28;20203;-46
2022/02/14 07:03:08;;;;;;;5.77;2.40;;;7.50;99.90;;;;;;5059466;28;20282;-45
2022/02/14 07:05:35;;;;;;;3.80;2.30;;;7.50;99.90;;;;;;5050101;28;20697;-47
2022/02/14 07:08:02;;;;;;;4.03;2.10;;;7.60;99.90;;;;;;5060921;28;20222;-46
2022/02/14 07:10:29;;;;;;;7.03;2.60;;;7.60;99.90;;;;;;5064956;28;20392;-45
2022/02/14 07:12:56;;;;;;;3.77;2.40;;;7.60;99.90;;;;;;5053621;28;20595;-45
2022/02/14 07:15:24;;;;;;;5.30;2.03;;;7.60;99.90;;;;;;5059326;28;20220;-46
2022/02/14 07:17:51;;;;;;;3.83;3.00;;;7.70;99.90;;;;;;5053141;28;20203;-45
2022/02/14 07:20:20;;;;;;;3.07;2.37;;;7.70;99.90;;;;;;5048785;28;20228;-48
2022/02/14 07:22:47;;;;;;;4.37;2.70;;;7.70;99.90;;;;;;5059496;28;20277;-48
2022/02/14 07:25:15;;;;;;;7.60;3.00;;;7.70;99.90;;;;;;5069459;28;20194;-48
2022/02/14 07:27:42;;;;;;;4.20;2.60;;;7.70;99.90;;;;;;5056464;28;20549;-51
2022/02/14 07:30:13;;;;;;;4.00;2.37;;;7.80;99.90;;;;;;5050871;28;20313;-47
2022/02/14 07:32:42;;;;;;;3.33;2.20;;;7.90;99.90;;;;;;5059247;28;20194;-47
2022/02/14 07:35:10;;;;;;;3.70;2.70;;;7.90;99.90;;;;;;5043098;28;20354;-47
2022/02/14 07:37:37;;;;;;;5.63;2.27;;;8.00;99.90;;;;;;5063612;28;20247;-48
2022/02/14 07:40:06;;;;;;;5.50;2.20;;;8.10;99.90;;;;;;5051417;28;20193;-45
2022/02/14 07:42:33;;;;;;;5.90;2.37;;;8.10;99.90;;;;;;5057300;28;20221;-46
2022/02/14 07:44:59;;;;;;;3.80;2.53;;;8.20;99.90;;;;;;5051336;28;20256;-45
2022/02/14 07:47:26;;;;;;;4.67;2.30;;;8.20;99.90;;;;;;5045703;28;20325;-45
2022/02/14 07:49:54;;;;;;;5.97;2.10;;;8.20;99.90;;;;;;5064061;28;20230;-47
2022/02/14 07:52:22;;;;;;;3.10;2.40;;;8.30;99.90;;;;;;5038972;28;20214;-49
2022/02/14 07:54:49;;;;;;;6.97;2.80;;;8.40;99.90;;;;;;5056785;28;21000;-45
2022/02/14 07:57:15;;;;;;;3.90;2.20;;;8.50;99.90;;;;;;5059982;28;20202;-49
2022/02/14 07:59:42;;;;;;;2.97;2.20;;;8.60;99.90;;;;;;5061242;28;20218;-47
2022/02/14 08:02:09;;;;;;;3.83;1.73;;;8.60;99.90;;;;;;5048351;28;20687;-48
2022/02/14 08:04:36;;;;;;;5.20;1.73;;;8.70;99.90;;;;;;5067539;28;20479;-49
2022/02/14 08:07:06;;;;;;;6.83;2.03;;;8.90;99.90;;;;;;5040446;28;20206;-45
2022/02/14 08:09:34;;;;;;;4.20;1.77;;;8.90;99.90;;;;;;5064925;28;20699;-44
2022/02/14 08:12:00;;;;;;;4.37;2.33;;;9.00;99.90;;;;;;5053592;28;20210;-51
2022/02/14 08:14:28;;;;;;;4.43;2.00;;;9.10;99.90;;;;;;5050391;28;20280;-48
2022/02/14 08:16:54;;;;;;;3.10;1.80;;;9.10;99.90;;;;;;5044678;28;20203;-46
2022/02/14 08:19:21;;;;;;;3.17;2.10;;;9.20;99.90;;;;;;5058504;28;20215;-45
2022/02/14 08:21:48;;;;;;;2.30;2.00;;;9.20;99.90;;;;;;5064507;28;20592;-48
2022/02/14 08:24:16;;;;;;;3.80;2.00;;;9.30;99.90;;;;;;5038645;28;21015;-45
2022/02/14 08:26:42;;;;;;;4.80;1.83;;;9.30;99.90;;;;;;5070366;28;20658;-46
2022/02/14 08:29:11;;;;;;;2.67;1.73;;;9.40;99.90;;;;;;5046303;28;20225;-47
2022/02/14 08:31:39;;;;;;;6.40;2.17;;;9.40;99.90;;;;;;5051008;28;20221;-48
2022/02/14 08:34:05;;;;;;;7.80;1.80;;;9.50;99.90;;;;;;5054545;28;20289;-47
2022/02/14 08:36:32;;;;;;;4.20;2.20;;;9.50;99.90;;;;;;5058596;28;20210;-47
2022/02/14 08:39:01;;;;;;;3.13;1.60;;;9.60;99.90;;;;;;5039367;28;20292;-47
2022/02/14 08:41:30;;;;;;;3.23;1.83;;;9.60;99.90;;;;;;5061492;28;20214;-49
2022/02/14 08:43:57;;;;;;;4.77;1.87;;;9.70;99.90;;;;;;5045694;28;20937;-47
2022/02/14 08:46:25;;;;;;;2.40;2.10;;;9.70;99.90;;;;;;5055510;28;20210;-47
2022/02/14 08:48:54;;;;;;;2.77;2.20;;;9.80;99.90;;;;;;5051425;28;20234;-47
2022/02/14 08:51:22;;;;;;;6.63;2.20;;;9.80;99.90;;;;;;5058461;28;20199;-51
2022/02/14 08:53:50;;;;;;;4.77;1.77;;;9.80;99.90;;;;;;5046234;28;20623;-47
2022/02/14 08:56:17;;;;;;;1.73;1.63;;;9.80;99.90;;;;;;5059688;28;20251;-44
2022/02/14 08:58:46;;;;;;;5.80;1.80;;;9.80;99.90;;;;;;5061334;28;20215;-50
2022/02/14 09:01:13;;;;;;;5.87;1.80;;;9.80;99.90;;;;;;5055136;28;20203;-47
2022/02/14 09:03:41;;;;;;;4.50;1.80;;;9.80;99.90;;;;;;5046689;28;20269;-46
2022/02/14 09:06:08;;;;;;;3.10;1.73;;;9.90;99.90;;;;;;5055658;28;20203;-45
2022/02/14 09:08:35;;;;;;;2.73;1.87;;;9.90;99.90;;;;;;5057518;28;20309;-49
2022/02/14 09:11:03;;;;;;;5.60;1.80;;;9.90;99.90;;;;;;5056578;28;20191;-47
2022/02/14 09:13:32;;;;;;;3.27;1.90;;;10.00;99.90;;;;;;5057050;28;20198;-44
2022/02/14 09:16:03;;;;;;;3.47;1.80;;;10.00;99.90;;;;;;5052861;28;20190;-46
2022/02/14 09:18:29;;;;;;;4.60;1.83;;;10.10;99.90;;;;;;5060797;28;20236;-48
2022/02/14 09:20:56;;;;;;;4.07;2.20;;;10.10;99.90;;;;;;5050885;28;20187;-46
2022/02/14 09:23:23;;;;;;;5.27;1.97;;;10.20;99.90;;;;;;5068611;28;20627;-45
2022/02/14 09:25:49;;;;;;;6.23;2.80;;;10.30;99.90;;;;;;5043174;28;20202;-49
2022/02/14 09:28:16;;;;;;;5.10;2.40;;;10.30;99.90;;;;;;5061966;28;20294;-46
2022/02/14 09:30:43;;;;;;;2.43;1.80;;;10.40;99.90;;;;;;5052295;28;20210;-45
2022/02/14 09:33:11;;;;;;;6.03;2.07;;;10.50;99.90;;;;;;5064531;28;20217;-51
2022/02/14 09:35:38;;;;;;;4.10;1.83;;;10.60;99.90;;;;;;5050117;28;20217;-46
2022/02/14 09:38:06;;;;;;;3.97;1.87;;;10.60;99.90;;;;;;5062862;28;20230;-49
2022/02/14 09:40:34;;;;;;;2.20;1.90;;;10.70;99.90;;;;;;5055433;28;20285;-48
2022/02/14 09:43:01;;;;;;;4.27;2.07;;;10.70;99.90;;;;;;5054491;28;20213;-48
2022/02/14 09:45:29;;;;;;;5.10;2.03;;;10.80;99.90;;;;;;5062310;28;20199;-48
2022/02/14 09:47:58;;;;;;;2.27;1.70;;;10.90;99.90;;;;;;5046019;28;20199;-50
2022/02/14 09:50:26;;;;;;;3.23;1.90;;;11.00;99.90;;;;;;5062621;28;20199;-50
2022/02/14 09:52:54;;;;;;;2.70;1.67;;;11.00;99.90;;;;;;5064190;28;20191;-45
2022/02/14 09:55:22;;;;;;;2.93;1.57;;;11.20;99.90;;;;;;5069202;28;20229;-46
2022/02/14 09:57:49;;;;;;;3.70;1.80;;;11.30;99.90;;;;;;5047555;28;20996;-44
2022/02/14 10:00:16;;;;;;;2.10;1.50;;;11.40;99.90;;;;;;5063498;28;20194;-48
2022/02/14 10:02:43;;;;;;;3.93;1.80;;;11.40;99.90;;;;;;5055984;28;20198;-46
2022/02/14 10:05:13;;;;;;;2.80;1.40;;;11.40;99.90;;;;;;5066978;28;20202;-45
2022/02/14 10:07:46;;;;;;;3.57;1.80;;;11.50;99.90;;;;;;5065258;28;20634;-47
2022/02/14 10:10:16;;;;;;;6.70;2.97;;;11.60;99.90;;;;;;5067783;28;20640;-45
2022/02/14 10:12:46;;;;;;;3.37;2.40;;;11.70;99.90;;;;;;5049654;28;20248;-50
2022/02/14 10:15:15;;;;;;;4.27;1.57;;;11.80;99.90;;;;;;5056344;28;20233;-47
2022/02/14 10:17:44;;;;;;;3.23;1.93;;;11.80;99.90;;;;;;5055348;28;20199;-50
2022/02/14 10:20:15;;;;;;;3.83;2.83;;;11.90;99.90;;;;;;5064012;28;20199;-46
2022/02/14 10:22:55;;;;;;;3.63;2.50;;;11.90;99.90;;;;;;5056708;28;20202;-52
2022/02/14 10:25:35;;;;;;;3.63;2.23;;;11.90;99.90;;;;;;5066970;28;20194;-45
2022/02/14 10:28:20;;;;;;;3.93;2.10;;;11.90;99.90;;;;;;5043983;28;20281;-45
2022/02/14 10:31:00;;;;;;;4.43;2.77;;;12.00;99.90;;;;;;5061595;28;20217;-48
2022/02/14 10:33:47;;;;;;;2.53;1.67;;;12.10;99.90;;;;;;5060049;28;20202;-48
2022/02/14 10:36:24;;;;;;;6.93;2.57;;;12.00;99.90;;;;;;5069216;28;20247;-46
2022/02/14 10:38:53;;;;;;;3.33;2.13;;;12.10;99.90;;;;;;5057397;28;20214;-44
2022/02/14 10:41:19;;;;;;;5.10;2.27;;;12.10;99.90;;;;;;5059926;28;20219;-44
2022/02/14 10:43:46;;;;;;;3.40;2.60;;;12.10;99.90;;;;;;5045268;28;20216;-45
2022/02/14 10:46:20;;;;;;;2.27;1.70;;;12.10;99.90;;;;;;5059345;28;20201;-48
2022/02/14 10:48:47;;;;;;;2.30;2.10;;;12.10;99.90;;;;;;5053885;28;21900;-49
2022/02/14 10:51:18;;;;;;;3.53;2.40;;;12.20;99.90;;;;;;5062472;28;20281;-46
2022/02/14 10:53:48;;;;;;;3.77;2.50;;;12.20;99.90;;;;;;5051122;28;20197;-46
2022/02/14 10:56:19;;;;;;;4.40;1.67;;;12.20;99.90;;;;;;5067869;28;20243;-45
2022/02/14 10:58:47;;;;;;;4.10;2.30;;;12.30;99.90;;;;;;5046801;28;20237;-48
2022/02/14 11:01:15;;;;;;;4.90;3.07;;;12.30;99.90;;;;;;5070501;28;20203;-49
2022/02/14 11:03:43;;;;;;;7.97;3.17;;;12.30;99.90;;;;;;5063347;28;20217;-52
2022/02/14 11:06:11;;;;;;;3.10;2.17;;;12.30;99.90;;;;;;5059565;28;20207;-46
2022/02/14 11:08:39;;;;;;;6.53;3.07;;;12.30;99.90;;;;;;5063435;28;20251;-46
2022/02/14 11:11:08;;;;;;;3.20;2.10;;;12.40;99.90;;;;;;5072594;28;20295;-49
2022/02/14 11:13:39;;;;;;;4.30;2.20;;;12.40;99.90;;;;;;5056213;28;20960;-49
2022/02/14 11:16:06;;;;;;;4.30;2.27;;;12.50;99.90;;;;;;5060177;28;20660;-46
2022/02/14 11:18:34;;;;;;;3.73;2.20;;;12.50;99.90;;;;;;5065441;28;20214;-47
2022/02/14 11:21:02;;;;;;;2.90;2.30;;;12.60;99.90;;;;;;5057768;28;21002;-45
2022/02/14 11:23:33;;;;;;;4.33;2.73;;;12.60;99.90;;;;;;5067734;28;20269;-50
2022/02/14 11:26:05;;;;;;;3.90;2.00;;;12.70;99.90;;;;;;5055986;28;20193;-50
2022/02/14 11:28:38;;;;;;;3.53;1.97;;;12.70;99.90;;;;;;5061949;28;20297;-48
2022/02/14 11:31:10;;;;;;;3.73;1.83;;;12.70;99.90;;;;;;5043042;28;20206;-49
2022/02/14 11:33:39;;;;;;;2.70;1.50;;;12.70;99.90;;;;;;5064198;28;20237;-46
2022/02/14 11:36:07;;;;;;;2.23;1.70;;;12.80;99.90;;;;;;5063514;28;20262;-48
2022/02/14 11:38:42;;;;;;;2.70;1.67;;;12.70;99.90;;;;;;5063508;28;20245;-47
2022/02/14 11:41:33;;;;;;;3.73;2.13;;;12.70;99.90;;;;;;5056091;28;20198;-51
2022/02/14 11:44:21;;;;;;;3.43;2.37;;;12.70;99.90;;;;;;5073233;28;20195;-48
2022/02/14 11:47:07;;;;;;;3.67;2.43;;;12.70;99.90;;;;;;5044129;28;20210;-46
2022/02/14 11:49:37;;;;;;;6.40;2.23;;;12.70;99.90;;;;;;5060571;28;20222;-45
2022/02/14 11:52:06;;;;;;;4.33;1.87;;;12.70;99.90;;;;;;5064709;28;20205;-45
2022/02/14 11:54:35;;;;;;;3.23;2.20;;;12.80;99.90;;;;;;5049870;28;20202;-48
2022/02/14 11:57:22;;;;;;;1.73;1.53;;;12.80;99.90;;;;;;5072183;28;20213;-44
2022/02/14 11:59:51;;;;;;;2.67;1.73;;;12.80;99.90;;;;;;5057384;28;20297;-50
2022/02/14 12:02:27;;;;;;;1.60;1.50;;;12.80;99.90;;;;;;5043647;28;20215;-49
2022/02/14 12:04:55;;;;;;;8.63;2.13;;;12.90;99.90;;;;;;5061574;28;20282;-47
2022/02/14 12:07:43;;;;;;;1.97;1.73;;;12.90;99.90;;;;;;5060183;28;20195;-47
2022/02/14 12:10:24;;;;;;;5.90;2.77;;;12.90;99.90;;;;;;5039286;28;20220;-51
2022/02/14 12:13:13;;;;;;;1.60;1.50;;;12.80;99.90;;;;;;5050622;28;20283;-45
2022/02/14 12:21:27;;;;;;;3.87;2.40;;;12.90;99.90;;;;;;5060128;28;20895;-50
2022/02/14 12:23:56;;;;;;;2.27;1.40;;;12.90;99.90;;;;;;5064167;28;20748;-47
2022/02/14 12:26:26;;;;;;;3.27;2.50;;;12.80;99.90;;;;;;5052154;28;20206;-44
2022/02/14 12:31:46;;;;;;;1.70;1.37;;;12.80;99.90;;;;;;5049011;28;20237;-42
2022/02/14 12:34:21;;;;;;;4.77;1.73;;;12.70;99.90;;;;;;5043273;28;20229;-44
2022/02/14 12:36:52;;;;;;;3.87;2.00;;;12.70;99.90;;;;;;5066642;28;20231;-46
2022/02/14 12:39:28;;;;;;;2.43;1.67;;;12.60;99.90;;;;;;5056073;28;20233;-44
2022/02/14 12:41:55;;;;;;;3.43;3.00;;;12.60;99.90;;;;;;5063512;28;20194;-47
2022/02/14 12:44:22;;;;;;;4.53;1.50;;;12.60;99.90;;;;;;5050885;28;20202;-44
2022/02/14 12:46:50;;;;;;;2.50;1.90;;;12.60;99.90;;;;;;5064828;28;20202;-47
2022/02/14 12:49:17;;;;;;;1.87;1.47;;;12.50;99.90;;;;;;5043828;28;20947;-43
2022/02/14 12:51:44;;;;;;;6.17;2.20;;;12.50;99.90;;;;;;5052084;28;20196;-46
2022/02/14 12:54:11;;;;;;;3.93;2.27;;;12.50;99.90;;;;;;5056503;28;20277;-44
2022/02/14 12:56:41;;;;;;;2.70;1.80;;;12.40;99.90;;;;;;5054853;28;20187;-46
2022/02/14 12:59:09;;;;;;;3.50;1.90;;;12.50;99.90;;;;;;5048634;28;20210;-50
2022/02/14 13:01:39;;;;;;;2.13;1.77;;;12.40;99.90;;;;;;5055395;28;20517;-48
2022/02/14 13:04:08;;;;;;;3.87;2.30;;;12.40;99.90;;;;;;5038739;28;20213;-47
2022/02/14 13:06:37;;;;;;;5.60;2.40;;;12.40;99.90;;;;;;5046068;28;20244;-53